sensor_id;sensor_type;location;lat;lon;timestamp;pressure;altitude;pressure_sealevel;temperature;humidity
10881;BME280;5493;48.884;8.338;2023-06-22T00:02:24;100105.03;;;25.92;100.00
10881;BME280;5493;48.884;8.338;2023-06-22T00:04:51;100093.50;;;25.90;100.00
10881;BME280;5493;48.884;8.338;2023-06-22T00:07:17;100091.69;;;25.94;100.00
10881;BME280;5493;48.884;8.338;2023-06-22T00:09:45;100103.25;;;25.79;100.00
10881;BME280;5493;48.884;8.338;2023-06-22T00:12:11;100118.03;;;25.74;100.00
10881;BME280;5493;48.884;8.338;2023-06-22T00:14:38;100157.19;;;25.76;100.00
10881;BME280;5493;48.884;8.338;2023-06-22T00:17:05;100208.84;;;25.67;100.00
10881;BME280;5493;48.884;8.338;2023-06-22T00:19:31;100291.63;;;25.50;100.00
10881;BME280;5493;48.884;8.338;2023-06-22T00:22:00;100374.03;;;25.34;100.00
10881;BME280;5493;48.884;8.338;2023-06-22T00:24:28;100397.56;;;25.10;100.00
10881;BME280;5493;48.884;8.338;2023-06-22T00:26:56;100348.00;;;25.05;100.00
10881;BME280;5493;48.884;8.338;2023-06-22T00:29:23;100240.28;;;24.43;100.00
10881;BME280;5493;48.884;8.338;2023-06-22T00:31:49;100158.59;;;24.25;100.00
10881;BME280;5493;48.884;8.338;2023-06-22T00:34:16;100132.66;;;24.03;100.00
10881;BME280;5493;48.884;8.338;2023-06-22T00:36:42;100116.81;;;24.09;100.00
10881;BME280;5493;48.884;8.338;2023-06-22T00:39:09;100122.97;;;24.28;100.00
10881;BME280;5493;48.884;8.338;2023-06-22T00:41:36;100128.00;;;24.57;100.00
10881;BME280;5493;48.884;8.338;2023-06-22T00:44:04;100130.34;;;24.72;100.00
10881;BME280;5493;48.884;8.338;2023-06-22T00:46:32;100144.00;;;24.77;100.00
10881;BME280;5493;48.884;8.338;2023-06-22T00:48:58;100142.50;;;24.71;100.00
10881;BME280;5493;48.884;8.338;2023-06-22T00:51:25;100147.25;;;24.48;100.00
10881;BME280;5493;48.884;8.338;2023-06-22T00:53:52;100154.63;;;24.62;100.00
10881;BME280;5493;48.884;8.338;2023-06-22T00:56:19;100149.88;;;24.54;100.00
10881;BME280;5493;48.884;8.338;2023-06-22T00:58:50;100155.84;;;24.47;100.00
10881;BME280;5493;48.884;8.338;2023-06-22T01:01:19;100170.91;;;24.72;100.00
10881;BME280;5493;48.884;8.338;2023-06-22T01:03:49;100186.34;;;24.28;100.00
10881;BME280;5493;48.884;8.338;2023-06-22T01:06:19;100183.16;;;23.99;100.00
10881;BME280;5493;48.884;8.338;2023-06-22T01:08:57;100192.31;;;23.72;100.00
10881;BME280;5493;48.884;8.338;2023-06-22T01:11:32;100188.13;;;23.34;100.00
10881;BME280;5493;48.884;8.338;2023-06-22T01:14:06;100195.97;;;23.13;100.00
10881;BME280;5493;48.884;8.338;2023-06-22T01:16:40;100209.50;;;22.96;100.00
10881;BME280;5493;48.884;8.338;2023-06-22T01:19:14;100200.84;;;23.02;100.00
10881;BME280;5493;48.884;8.338;2023-06-22T01:21:46;100198.41;;;23.01;100.00
10881;BME280;5493;48.884;8.338;2023-06-22T01:24:18;100204.72;;;23.15;100.00
10881;BME280;5493;48.884;8.338;2023-06-22T01:26:54;100215.91;;;22.91;100.00
10881;BME280;5493;48.884;8.338;2023-06-22T01:29:25;100215.41;;;22.89;100.00
10881;BME280;5493;48.884;8.338;2023-06-22T01:31:54;100207.78;;;23.00;100.00
10881;BME280;5493;48.884;8.338;2023-06-22T01:34:23;100213.78;;;22.88;100.00
10881;BME280;5493;48.884;8.338;2023-06-22T01:36:51;100233.13;;;22.65;100.00
10881;BME280;5493;48.884;8.338;2023-06-22T01:39:18;100221.13;;;22.61;100.00
10881;BME280;5493;48.884;8.338;2023-06-22T01:41:45;100222.00;;;22.56;100.00
10881;BME280;5493;48.884;8.338;2023-06-22T01:44:13;100214.38;;;22.53;100.00
10881;BME280;5493;48.884;8.338;2023-06-22T01:46:41;100207.38;;;22.61;100.00
10881;BME280;5493;48.884;8.338;2023-06-22T01:49:08;100198.84;;;22.43;100.00
10881;BME280;5493;48.884;8.338;2023-06-22T01:51:35;100204.94;;;22.40;100.00
10881;BME280;5493;48.884;8.338;2023-06-22T01:54:01;100198.81;;;22.94;100.00
10881;BME280;5493;48.884;8.338;2023-06-22T01:56:28;100192.41;;;22.67;100.00
10881;BME280;5493;48.884;8.338;2023-06-22T01:59:00;100196.97;;;22.57;100.00
10881;BME280;5493;48.884;8.338;2023-06-22T02:01:31;100198.16;;;22.51;100.00
10881;BME280;5493;48.884;8.338;2023-06-22T02:04:03;100197.44;;;22.46;100.00
10881;BME280;5493;48.884;8.338;2023-06-22T02:06:36;100195.66;;;22.36;100.00
10881;BME280;5493;48.884;8.338;2023-06-22T02:09:07;100189.28;;;22.41;100.00
10881;BME280;5493;48.884;8.338;2023-06-22T02:11:36;100187.91;;;22.57;100.00
10881;BME280;5493;48.884;8.338;2023-06-22T02:14:04;100184.69;;;22.69;100.00
10881;BME280;5493;48.884;8.338;2023-06-22T02:16:32;100178.97;;;22.65;100.00
10881;BME280;5493;48.884;8.338;2023-06-22T02:19:01;100191.78;;;22.56;100.00
10881;BME280;5493;48.884;8.338;2023-06-22T02:21:29;100186.88;;;22.72;100.00
10881;BME280;5493;48.884;8.338;2023-06-22T02:23:56;100175.88;;;22.72;100.00
10881;BME280;5493;48.884;8.338;2023-06-22T02:26:23;100175.97;;;22.80;100.00
10881;BME280;5493;48.884;8.338;2023-06-22T02:28:51;100174.75;;;22.86;100.00
10881;BME280;5493;48.884;8.338;2023-06-22T02:31:18;100166.19;;;22.74;100.00
10881;BME280;5493;48.884;8.338;2023-06-22T02:33:45;100169.59;;;22.66;100.00
10881;BME280;5493;48.884;8.338;2023-06-22T02:36:13;100174.69;;;22.59;100.00
10881;BME280;5493;48.884;8.338;2023-06-22T02:38:40;100176.63;;;22.58;100.00
10881;BME280;5493;48.884;8.338;2023-06-22T02:41:13;100170.91;;;22.55;100.00
10881;BME280;5493;48.884;8.338;2023-06-22T02:43:43;100170.75;;;22.46;100.00
10881;BME280;5493;48.884;8.338;2023-06-22T02:46:10;100159.47;;;22.48;100.00
10881;BME280;5493;48.884;8.338;2023-06-22T02:48:36;100155.09;;;22.47;100.00
10881;BME280;5493;48.884;8.338;2023-06-22T02:51:03;100147.66;;;22.47;100.00
10881;BME280;5493;48.884;8.338;2023-06-22T02:53:31;100151.78;;;22.50;100.00
10881;BME280;5493;48.884;8.338;2023-06-22T02:55:57;100140.25;;;22.48;100.00
10881;BME280;5493;48.884;8.338;2023-06-22T02:58:26;100142.06;;;22.39;100.00
10881;BME280;5493;48.884;8.338;2023-06-22T03:00:53;100130.44;;;22.28;100.00
10881;BME280;5493;48.884;8.338;2023-06-22T03:03:19;100115.78;;;22.33;100.00
10881;BME280;5493;48.884;8.338;2023-06-22T03:05:46;100114.47;;;22.30;100.00
10881;BME280;5493;48.884;8.338;2023-06-22T03:08:12;100114.50;;;22.44;100.00
10881;BME280;5493;48.884;8.338;2023-06-22T03:10:40;100105.47;;;22.57;100.00
10881;BME280;5493;48.884;8.338;2023-06-22T03:13:07;100114.47;;;22.30;100.00
10881;BME280;5493;48.884;8.338;2023-06-22T03:15:33;100102.06;;;22.33;100.00
10881;BME280;5493;48.884;8.338;2023-06-22T03:18:00;100117.66;;;22.51;100.00
10881;BME280;5493;48.884;8.338;2023-06-22T03:20:26;100126.06;;;22.27;100.00
10881;BME280;5493;48.884;8.338;2023-06-22T03:22:58;100118.06;;;22.44;100.00
10881;BME280;5493;48.884;8.338;2023-06-22T03:25:25;100113.44;;;22.26;100.00
10881;BME280;5493;48.884;8.338;2023-06-22T03:27:53;100116.53;;;22.38;100.00
10881;BME280;5493;48.884;8.338;2023-06-22T03:30:19;100122.53;;;22.40;100.00
10881;BME280;5493;48.884;8.338;2023-06-22T03:32:46;100119.88;;;22.35;100.00
10881;BME280;5493;48.884;8.338;2023-06-22T03:35:13;100121.16;;;22.24;100.00
10881;BME280;5493;48.884;8.338;2023-06-22T03:37:39;100118.63;;;22.28;100.00
10881;BME280;5493;48.884;8.338;2023-06-22T03:40:07;100117.13;;;22.35;100.00
10881;BME280;5493;48.884;8.338;2023-06-22T03:42:34;100115.03;;;22.14;100.00
10881;BME280;5493;48.884;8.338;2023-06-22T03:45:03;100116.78;;;22.23;100.00
10881;BME280;5493;48.884;8.338;2023-06-22T03:47:29;100105.38;;;22.16;100.00
10881;BME280;5493;48.884;8.338;2023-06-22T03:49:56;100100.13;;;22.33;100.00
10881;BME280;5493;48.884;8.338;2023-06-22T03:52:22;100095.16;;;22.35;100.00
10881;BME280;5493;48.884;8.338;2023-06-22T03:54:50;100105.63;;;22.47;100.00
10881;BME280;5493;48.884;8.338;2023-06-22T03:57:17;100096.28;;;22.48;100.00
10881;BME280;5493;48.884;8.338;2023-06-22T03:59:43;100096.16;;;22.39;100.00
10881;BME280;5493;48.884;8.338;2023-06-22T04:02:11;100089.06;;;22.52;100.00
10881;BME280;5493;48.884;8.338;2023-06-22T04:04:38;100082.06;;;22.46;100.00
10881;BME280;5493;48.884;8.338;2023-06-22T04:07:05;100082.06;;;22.46;100.00
10881;BME280;5493;48.884;8.338;2023-06-22T04:09:31;100074.84;;;22.64;100.00
10881;BME280;5493;48.884;8.338;2023-06-22T04:11:58;100079.41;;;22.54;100.00
10881;BME280;5493;48.884;8.338;2023-06-22T04:14:24;100080.97;;;22.74;100.00
10881;BME280;5493;48.884;8.338;2023-06-22T04:16:51;100088.91;;;22.76;100.00
10881;BME280;5493;48.884;8.338;2023-06-22T04:19:19;100083.22;;;22.86;100.00
10881;BME280;5493;48.884;8.338;2023-06-22T04:21:46;100083.53;;;22.84;100.00
10881;BME280;5493;48.884;8.338;2023-06-22T04:24:13;100080.03;;;23.20;100.00
10881;BME280;5493;48.884;8.338;2023-06-22T04:26:40;100073.00;;;23.27;100.00
10881;BME280;5493;48.884;8.338;2023-06-22T04:29:07;100070.63;;;23.34;100.00
10881;BME280;5493;48.884;8.338;2023-06-22T04:31:35;100069.19;;;23.37;100.00
10881;BME280;5493;48.884;8.338;2023-06-22T04:34:02;100069.63;;;23.44;100.00
10881;BME280;5493;48.884;8.338;2023-06-22T04:36:34;100067.84;;;23.84;100.00
10881;BME280;5493;48.884;8.338;2023-06-22T04:39:06;100062.22;;;23.89;100.00
10881;BME280;5493;48.884;8.338;2023-06-22T04:41:35;100057.78;;;23.79;100.00
10881;BME280;5493;48.884;8.338;2023-06-22T04:44:09;100055.31;;;23.78;100.00
10881;BME280;5493;48.884;8.338;2023-06-22T04:46:36;100045.38;;;23.90;100.00
10881;BME280;5493;48.884;8.338;2023-06-22T04:49:04;100050.28;;;24.16;100.00
10881;BME280;5493;48.884;8.338;2023-06-22T04:51:39;100049.25;;;24.12;100.00
10881;BME280;5493;48.884;8.338;2023-06-22T04:54:06;100041.06;;;24.20;100.00
10881;BME280;5493;48.884;8.338;2023-06-22T04:56:33;100040.63;;;24.05;100.00
10881;BME280;5493;48.884;8.338;2023-06-22T04:58:59;100029.59;;;24.27;100.00
10881;BME280;5493;48.884;8.338;2023-06-22T05:01:26;100030.31;;;24.80;100.00
10881;BME280;5493;48.884;8.338;2023-06-22T05:03:52;100022.97;;;24.76;100.00
10881;BME280;5493;48.884;8.338;2023-06-22T05:06:21;100014.94;;;24.96;100.00
10881;BME280;5493;48.884;8.338;2023-06-22T05:08:52;100015.19;;;25.52;100.00
10881;BME280;5493;48.884;8.338;2023-06-22T05:11:22;100012.56;;;25.72;100.00
10881;BME280;5493;48.884;8.338;2023-06-22T05:13:49;100010.78;;;25.42;100.00
10881;BME280;5493;48.884;8.338;2023-06-22T05:16:15;100010.63;;;25.30;100.00
10881;BME280;5493;48.884;8.338;2023-06-22T05:18:42;100005.75;;;25.35;100.00
10881;BME280;5493;48.884;8.338;2023-06-22T05:21:08;100004.31;;;25.46;100.00
10881;BME280;5493;48.884;8.338;2023-06-22T05:23:35;100000.22;;;25.61;100.00
10881;BME280;5493;48.884;8.338;2023-06-22T05:26:03;99998.28;;;25.79;100.00
10881;BME280;5493;48.884;8.338;2023-06-22T05:28:29;100002.22;;;25.61;100.00
10881;BME280;5493;48.884;8.338;2023-06-22T05:30:56;100003.25;;;26.03;100.00
10881;BME280;5493;48.884;8.338;2023-06-22T05:33:22;100001.50;;;26.44;100.00
10881;BME280;5493;48.884;8.338;2023-06-22T05:35:49;99997.09;;;26.52;100.00
10881;BME280;5493;48.884;8.338;2023-06-22T05:38:17;99997.47;;;26.42;100.00
10881;BME280;5493;48.884;8.338;2023-06-22T05:40:43;99996.25;;;26.05;100.00
10881;BME280;5493;48.884;8.338;2023-06-22T05:43:11;99990.28;;;26.50;100.00
10881;BME280;5493;48.884;8.338;2023-06-22T05:45:38;99984.09;;;26.82;100.00
10881;BME280;5493;48.884;8.338;2023-06-22T05:48:05;99982.00;;;26.41;100.00
10881;BME280;5493;48.884;8.338;2023-06-22T05:50:31;99995.28;;;26.94;100.00
10881;BME280;5493;48.884;8.338;2023-06-22T05:52:58;100006.84;;;27.37;100.00
10881;BME280;5493;48.884;8.338;2023-06-22T05:55:24;99999.56;;;27.74;100.00
10881;BME280;5493;48.884;8.338;2023-06-22T05:57:51;99997.53;;;27.21;100.00
10881;BME280;5493;48.884;8.338;2023-06-22T06:00:20;99992.84;;;27.75;100.00
10881;BME280;5493;48.884;8.338;2023-06-22T06:02:47;99986.47;;;27.96;100.00
10881;BME280;5493;48.884;8.338;2023-06-22T06:05:14;99998.47;;;28.00;100.00
10881;BME280;5493;48.884;8.338;2023-06-22T06:07:41;99999.63;;;27.99;100.00
10881;BME280;5493;48.884;8.338;2023-06-22T06:10:08;100001.09;;;28.29;100.00
10881;BME280;5493;48.884;8.338;2023-06-22T06:12:35;99994.19;;;28.47;100.00
10881;BME280;5493;48.884;8.338;2023-06-22T06:15:02;99999.13;;;27.84;100.00
10881;BME280;5493;48.884;8.338;2023-06-22T06:17:30;99987.34;;;28.32;100.00
10881;BME280;5493;48.884;8.338;2023-06-22T06:19:58;99986.66;;;28.23;100.00
10881;BME280;5493;48.884;8.338;2023-06-22T06:22:25;99978.81;;;28.62;100.00
10881;BME280;5493;48.884;8.338;2023-06-22T06:24:51;99972.72;;;28.68;100.00
10881;BME280;5493;48.884;8.338;2023-06-22T06:27:18;99960.81;;;29.20;100.00
10881;BME280;5493;48.884;8.338;2023-06-22T06:29:44;99961.81;;;29.00;100.00
10881;BME280;5493;48.884;8.338;2023-06-22T06:32:13;99963.16;;;29.06;100.00
10881;BME280;5493;48.884;8.338;2023-06-22T06:34:41;99961.38;;;28.86;100.00
10881;BME280;5493;48.884;8.338;2023-06-22T06:37:08;99966.69;;;28.78;100.00
10881;BME280;5493;48.884;8.338;2023-06-22T06:39:35;99954.09;;;29.61;100.00
10881;BME280;5493;48.884;8.338;2023-06-22T06:42:01;99962.44;;;29.33;100.00
10881;BME280;5493;48.884;8.338;2023-06-22T06:44:28;99954.47;;;29.87;100.00
10881;BME280;5493;48.884;8.338;2023-06-22T06:46:54;99962.34;;;29.57;100.00
10881;BME280;5493;48.884;8.338;2023-06-22T06:49:21;99945.00;;;29.76;100.00
10881;BME280;5493;48.884;8.338;2023-06-22T06:51:49;99942.59;;;30.84;100.00
10881;BME280;5493;48.884;8.338;2023-06-22T06:54:16;99940.06;;;30.44;100.00
10881;BME280;5493;48.884;8.338;2023-06-22T06:56:43;99949.44;;;29.93;100.00
10881;BME280;5493;48.884;8.338;2023-06-22T06:59:13;99949.13;;;30.92;100.00
10881;BME280;5493;48.884;8.338;2023-06-22T07:01:39;99944.59;;;30.68;100.00
10881;BME280;5493;48.884;8.338;2023-06-22T07:04:06;99943.38;;;31.00;100.00
10881;BME280;5493;48.884;8.338;2023-06-22T07:06:32;99942.47;;;30.96;100.00
10881;BME280;5493;48.884;8.338;2023-06-22T07:09:00;99945.28;;;31.15;100.00
10881;BME280;5493;48.884;8.338;2023-06-22T07:11:28;99935.03;;;31.39;100.00
10881;BME280;5493;48.884;8.338;2023-06-22T07:13:55;99934.28;;;31.80;100.00
10881;BME280;5493;48.884;8.338;2023-06-22T07:16:22;99929.69;;;31.49;100.00
10881;BME280;5493;48.884;8.338;2023-06-22T07:18:50;99918.97;;;31.70;100.00
10881;BME280;5493;48.884;8.338;2023-06-22T07:21:16;99935.50;;;32.25;100.00
10881;BME280;5493;48.884;8.338;2023-06-22T07:23:43;99926.66;;;32.45;100.00
10881;BME280;5493;48.884;8.338;2023-06-22T07:26:11;99914.56;;;32.11;100.00
10881;BME280;5493;48.884;8.338;2023-06-22T07:28:37;99926.53;;;32.87;100.00
10881;BME280;5493;48.884;8.338;2023-06-22T07:31:06;99923.97;;;33.05;100.00
10881;BME280;5493;48.884;8.338;2023-06-22T07:33:32;99909.25;;;33.08;100.00
10881;BME280;5493;48.884;8.338;2023-06-22T07:35:59;99908.84;;;33.73;100.00
10881;BME280;5493;48.884;8.338;2023-06-22T07:38:25;99911.88;;;33.24;100.00
10881;BME280;5493;48.884;8.338;2023-06-22T07:40:52;99916.81;;;33.07;100.00
10881;BME280;5493;48.884;8.338;2023-06-22T07:43:20;99918.66;;;33.23;100.00
10881;BME280;5493;48.884;8.338;2023-06-22T07:45:48;99921.28;;;33.75;100.00
10881;BME280;5493;48.884;8.338;2023-06-22T07:48:17;99926.56;;;33.50;100.00
10881;BME280;5493;48.884;8.338;2023-06-22T07:50:43;99931.03;;;32.95;100.00
10881;BME280;5493;48.884;8.338;2023-06-22T07:53:10;99931.31;;;33.13;100.00
10881;BME280;5493;48.884;8.338;2023-06-22T07:55:37;99941.81;;;33.23;100.00
10881;BME280;5493;48.884;8.338;2023-06-22T07:58:03;99937.47;;;33.29;100.00
10881;BME280;5493;48.884;8.338;2023-06-22T08:00:31;99949.53;;;33.33;100.00
10881;BME280;5493;48.884;8.338;2023-06-22T08:02:58;99949.25;;;33.75;100.00
10881;BME280;5493;48.884;8.338;2023-06-22T08:05:25;99948.78;;;32.80;100.00
10881;BME280;5493;48.884;8.338;2023-06-22T08:07:53;99958.13;;;32.42;100.00
10881;BME280;5493;48.884;8.338;2023-06-22T08:10:20;99961.81;;;32.99;100.00
10881;BME280;5493;48.884;8.338;2023-06-22T08:12:46;99966.56;;;33.88;100.00
10881;BME280;5493;48.884;8.338;2023-06-22T08:15:13;99990.44;;;34.15;100.00
10881;BME280;5493;48.884;8.338;2023-06-22T08:17:41;99999.03;;;34.33;100.00
10881;BME280;5493;48.884;8.338;2023-06-22T08:20:08;100022.59;;;34.32;100.00
10881;BME280;5493;48.884;8.338;2023-06-22T08:22:37;100025.84;;;33.63;100.00
10881;BME280;5493;48.884;8.338;2023-06-22T08:25:04;100026.34;;;33.46;100.00
10881;BME280;5493;48.884;8.338;2023-06-22T08:27:31;100043.50;;;33.15;100.00
10881;BME280;5493;48.884;8.338;2023-06-22T08:29:58;100040.88;;;33.03;100.00
10881;BME280;5493;48.884;8.338;2023-06-22T08:32:25;100003.75;;;33.29;100.00
10881;BME280;5493;48.884;8.338;2023-06-22T08:34:53;99987.81;;;32.77;100.00
10881;BME280;5493;48.884;8.338;2023-06-22T08:37:20;99972.75;;;33.37;100.00
10881;BME280;5493;48.884;8.338;2023-06-22T08:39:55;99968.28;;;33.33;100.00
10881;BME280;5493;48.884;8.338;2023-06-22T08:42:22;99959.00;;;33.25;100.00
10881;BME280;5493;48.884;8.338;2023-06-22T08:44:49;99958.28;;;33.98;100.00
10881;BME280;5493;48.884;8.338;2023-06-22T08:47:16;99967.09;;;33.63;100.00
10881;BME280;5493;48.884;8.338;2023-06-22T08:49:42;99979.06;;;34.01;100.00
10881;BME280;5493;48.884;8.338;2023-06-22T08:52:10;99983.41;;;33.02;100.00
10881;BME280;5493;48.884;8.338;2023-06-22T08:54:37;99979.84;;;33.31;100.00
10881;BME280;5493;48.884;8.338;2023-06-22T08:57:04;99976.66;;;33.96;100.00
10881;BME280;5493;48.884;8.338;2023-06-22T08:59:30;99983.47;;;33.32;100.00
10881;BME280;5493;48.884;8.338;2023-06-22T09:01:57;99972.06;;;33.81;100.00
10881;BME280;5493;48.884;8.338;2023-06-22T09:04:24;99966.63;;;33.61;100.00
10881;BME280;5493;48.884;8.338;2023-06-22T09:06:50;99971.25;;;34.14;100.00
10881;BME280;5493;48.884;8.338;2023-06-22T09:09:19;99968.91;;;34.23;100.00
10881;BME280;5493;48.884;8.338;2023-06-22T09:11:45;99963.44;;;33.59;100.00
10881;BME280;5493;48.884;8.338;2023-06-22T09:14:12;99971.47;;;34.38;100.00
10881;BME280;5493;48.884;8.338;2023-06-22T09:16:39;99970.13;;;34.66;100.00
10881;BME280;5493;48.884;8.338;2023-06-22T09:19:05;99969.59;;;35.11;100.00
10881;BME280;5493;48.884;8.338;2023-06-22T09:21:32;99967.19;;;34.55;100.00
10881;BME280;5493;48.884;8.338;2023-06-22T09:23:58;99950.03;;;34.60;100.00
10881;BME280;5493;48.884;8.338;2023-06-22T09:26:26;99944.38;;;35.11;100.00
10881;BME280;5493;48.884;8.338;2023-06-22T09:28:52;99937.72;;;35.37;100.00
10881;BME280;5493;48.884;8.338;2023-06-22T09:31:19;99934.06;;;35.26;100.00
10881;BME280;5493;48.884;8.338;2023-06-22T09:33:52;99921.66;;;35.27;100.00
10881;BME280;5493;48.884;8.338;2023-06-22T09:36:19;99909.66;;;35.33;100.00
10881;BME280;5493;48.884;8.338;2023-06-22T09:38:45;99905.28;;;35.46;100.00
10881;BME280;5493;48.884;8.338;2023-06-22T09:41:12;99902.38;;;35.18;100.00
10881;BME280;5493;48.884;8.338;2023-06-22T09:43:40;99896.84;;;35.36;100.00
10881;BME280;5493;48.884;8.338;2023-06-22T09:46:06;99884.47;;;35.54;100.00
10881;BME280;5493;48.884;8.338;2023-06-22T09:48:34;99883.94;;;35.14;100.00
10881;BME280;5493;48.884;8.338;2023-06-22T09:51:01;99875.41;;;34.89;100.00
10881;BME280;5493;48.884;8.338;2023-06-22T09:53:27;99873.16;;;34.50;100.00
10881;BME280;5493;48.884;8.338;2023-06-22T09:55:54;99871.22;;;34.58;100.00
10881;BME280;5493;48.884;8.338;2023-06-22T09:58:20;99872.56;;;34.85;100.00
10881;BME280;5493;48.884;8.338;2023-06-22T10:00:48;99884.69;;;33.21;100.00
10881;BME280;5493;48.884;8.338;2023-06-22T10:03:15;99883.19;;;33.30;100.00
10881;BME280;5493;48.884;8.338;2023-06-22T10:05:41;99891.13;;;32.95;100.00
10881;BME280;5493;48.884;8.338;2023-06-22T10:08:08;99896.81;;;33.02;100.00
10881;BME280;5493;48.884;8.338;2023-06-22T10:10:35;99900.78;;;33.01;100.00
10881;BME280;5493;48.884;8.338;2023-06-22T10:13:07;99889.78;;;32.85;100.00
10881;BME280;5493;48.884;8.338;2023-06-22T10:15:35;99881.25;;;33.68;100.00
10881;BME280;5493;48.884;8.338;2023-06-22T10:18:03;99878.00;;;33.66;100.00
10881;BME280;5493;48.884;8.338;2023-06-22T10:20:30;99873.91;;;33.56;100.00
10881;BME280;5493;48.884;8.338;2023-06-22T10:22:56;99872.56;;;33.80;100.00
10881;BME280;5493;48.884;8.338;2023-06-22T10:25:23;99877.69;;;34.15;100.00
10881;BME280;5493;48.884;8.338;2023-06-22T10:27:50;99871.16;;;34.00;100.00
10881;BME280;5493;48.884;8.338;2023-06-22T10:30:17;99879.19;;;34.59;100.00
10881;BME280;5493;48.884;8.338;2023-06-22T10:32:43;99878.91;;;34.68;100.00
10881;BME280;5493;48.884;8.338;2023-06-22T10:35:11;99879.91;;;33.95;100.00
10881;BME280;5493;48.884;8.338;2023-06-22T10:37:41;99874.69;;;33.53;100.00
10881;BME280;5493;48.884;8.338;2023-06-22T10:40:09;99869.75;;;33.43;100.00
10881;BME280;5493;48.884;8.338;2023-06-22T10:42:36;99867.13;;;33.57;100.00
10881;BME280;5493;48.884;8.338;2023-06-22T10:45:02;99861.75;;;33.75;100.00
10881;BME280;5493;48.884;8.338;2023-06-22T10:47:29;99860.16;;;33.77;100.00
10881;BME280;5493;48.884;8.338;2023-06-22T10:49:55;99859.13;;;33.96;100.00
10881;BME280;5493;48.884;8.338;2023-06-22T10:52:23;99854.53;;;33.74;100.00
10881;BME280;5493;48.884;8.338;2023-06-22T10:54:50;99870.91;;;34.19;100.00
10881;BME280;5493;48.884;8.338;2023-06-22T10:57:17;99869.53;;;34.46;100.00
10881;BME280;5493;48.884;8.338;2023-06-22T10:59:44;99863.97;;;34.53;100.00
10881;BME280;5493;48.884;8.338;2023-06-22T11:02:10;99859.50;;;34.45;100.00
10881;BME280;5493;48.884;8.338;2023-06-22T11:04:37;99855.69;;;34.68;100.00
10881;BME280;5493;48.884;8.338;2023-06-22T11:07:04;99862.66;;;35.05;100.00
10881;BME280;5493;48.884;8.338;2023-06-22T11:09:32;99853.16;;;35.31;100.00
10881;BME280;5493;48.884;8.338;2023-06-22T11:11:58;99862.78;;;35.27;100.00
10881;BME280;5493;48.884;8.338;2023-06-22T11:14:25;99869.63;;;35.54;100.00
10881;BME280;5493;48.884;8.338;2023-06-22T11:16:51;99861.94;;;35.16;100.00
10881;BME280;5493;48.884;8.338;2023-06-22T11:19:18;99853.16;;;35.35;100.00
10881;BME280;5493;48.884;8.338;2023-06-22T11:21:45;99847.28;;;34.71;100.00
10881;BME280;5493;48.884;8.338;2023-06-22T11:24:11;99841.59;;;34.60;100.00
10881;BME280;5493;48.884;8.338;2023-06-22T11:26:39;99850.97;;;34.86;100.00
10881;BME280;5493;48.884;8.338;2023-06-22T11:29:05;99845.41;;;34.31;100.00
10881;BME280;5493;48.884;8.338;2023-06-22T11:31:34;99850.75;;;34.50;100.00
10881;BME280;5493;48.884;8.338;2023-06-22T11:34:00;99842.34;;;35.26;100.00
10881;BME280;5493;48.884;8.338;2023-06-22T11:36:27;99839.38;;;34.87;100.00
10881;BME280;5493;48.884;8.338;2023-06-22T11:38:54;99844.78;;;34.59;100.00
10881;BME280;5493;48.884;8.338;2023-06-22T11:41:21;99849.34;;;34.85;100.00
10881;BME280;5493;48.884;8.338;2023-06-22T11:43:49;99856.44;;;34.10;100.00
10881;BME280;5493;48.884;8.338;2023-06-22T11:46:15;99865.63;;;34.62;100.00
10881;BME280;5493;48.884;8.338;2023-06-22T11:48:42;99867.88;;;35.07;100.00
10881;BME280;5493;48.884;8.338;2023-06-22T11:51:08;99878.91;;;35.62;100.00
10881;BME280;5493;48.884;8.338;2023-06-22T11:53:35;99877.28;;;35.61;100.00
10881;BME280;5493;48.884;8.338;2023-06-22T11:56:01;99875.88;;;35.05;100.00
10881;BME280;5493;48.884;8.338;2023-06-22T11:58:28;99880.09;;;34.71;100.00
10881;BME280;5493;48.884;8.338;2023-06-22T12:00:56;99873.03;;;34.94;100.00
10881;BME280;5493;48.884;8.338;2023-06-22T12:03:22;99877.91;;;35.08;100.00
10881;BME280;5493;48.884;8.338;2023-06-22T12:05:49;99870.03;;;35.49;100.00
10881;BME280;5493;48.884;8.338;2023-06-22T12:08:16;99875.31;;;35.65;100.00
10881;BME280;5493;48.884;8.338;2023-06-22T12:10:43;99871.69;;;35.64;100.00
10881;BME280;5493;48.884;8.338;2023-06-22T12:13:09;99870.81;;;35.49;100.00
10881;BME280;5493;48.884;8.338;2023-06-22T12:15:36;99864.25;;;35.03;100.00
10881;BME280;5493;48.884;8.338;2023-06-22T12:18:04;99857.81;;;34.99;100.00
10881;BME280;5493;48.884;8.338;2023-06-22T12:20:30;99873.78;;;34.26;100.00
10881;BME280;5493;48.884;8.338;2023-06-22T12:22:57;99873.00;;;34.26;100.00
10881;BME280;5493;48.884;8.338;2023-06-22T12:25:24;99877.78;;;34.25;100.00
10881;BME280;5493;48.884;8.338;2023-06-22T12:27:50;99887.69;;;34.16;100.00
10881;BME280;5493;48.884;8.338;2023-06-22T12:30:17;99897.59;;;34.09;100.00
10881;BME280;5493;48.884;8.338;2023-06-22T12:32:43;99891.09;;;33.58;100.00
10881;BME280;5493;48.884;8.338;2023-06-22T12:35:11;99891.41;;;33.49;100.00
10881;BME280;5493;48.884;8.338;2023-06-22T12:37:39;99884.81;;;33.31;100.00
10881;BME280;5493;48.884;8.338;2023-06-22T12:40:07;99877.78;;;33.44;100.00
10881;BME280;5493;48.884;8.338;2023-06-22T12:42:34;99883.19;;;33.30;100.00
10881;BME280;5493;48.884;8.338;2023-06-22T12:45:00;99884.06;;;33.34;100.00
10881;BME280;5493;48.884;8.338;2023-06-22T12:47:27;99876.91;;;33.40;100.00
10881;BME280;5493;48.884;8.338;2023-06-22T12:49:54;99885.06;;;33.19;100.00
10881;BME280;5493;48.884;8.338;2023-06-22T12:52:21;99878.88;;;33.36;100.00
10881;BME280;5493;48.884;8.338;2023-06-22T12:54:48;99873.19;;;33.62;100.00
10881;BME280;5493;48.884;8.338;2023-06-22T12:57:15;99878.09;;;33.39;100.00